Aspatria, United Kingdom

2:55 AM BST on September 02, 2014 (GMT +0100)
Lake District, Cumbria | Change Station
CLOSE
Current Station
Personal Weather Station
Location: Cockermouth,
Elevation: 253 ft
Nearby Weather Stations

Elev 253 ft 54.66 °N, 3.35 °W | Updated 3 minutes ago

Partly Cloudy
Partly Cloudy
55.0 °F
Feels Like 55.0 °F
N
0.0
Wind Variable Wind from NNE
Gusts 0.0 mph

Today
High -- | Low -- °F
--% Chance of Precip.
Yesterday
High -- | Low -- °F
Precip. -- in
6:21 AM 8:03 PM
Waxing Crescent, 46% visible
Pressure 30.21 in
Visibility 6.2 miles
Clouds Few 3200 ft
Dew Point 51 °F
Humidity 85%
Rainfall 0.00 in
Snow Depth Not available.
UV 0 out of 12
Pollen Not available.
Air Quality Not available.
Flu Activity Not available.
METAR EGOM 020050Z AUTO 33006KT 9999 FEW032/// 09/08 Q1023

More Conditions Fewer Conditions

Pressure 30.21 in
Visibility 6.2 miles
Clouds Few 3200 ft
Dew Point 51 °F
Humidity 85%
Rainfall 0.00 in
Snow Depth Not available.
UV 0 out of 12
Pollen Not available.
Air Quality Not available.
Flu Activity Not available.
METAR EGOM 020050Z AUTO 33006KT 9999 FEW032/// 09/08 Q1023

More Conditions Fewer Conditions

10-Day Weather Forecast

Almanac

Astronomy

Sep. 02, 2014 Rise Set
Actual Time 6:21 AM BST 8:03 PM BST
Civil Twilight 5:43 AM BST 8:40 PM BST
Nautical Twilight 4:56 AM BST 9:27 PM BST
Astronomical Twilight 4:02 AM BST 10:21 PM BST
Moon 3:01 PM BST 11:34 PM BST
Length of Visible Light 14h 57m
Length of Day
13h 41m
Tomorrow will be 4m 20s shorter.
Waxing Crescent, 46% of the Moon is Illuminated
Sep 1
Waxing Crescent
Sep 2
First Quarter
Sep 8
Full
Sep 15
Last Quarter
Sep 24
New

Yesterday's Extremes

Country Highs Country Lows

Community

WunderPhotos

Upload Photos

1,749,476 photos uploaded!

Nearby

Snow Depth

Not available.

Earthquake Activity

City Distance Mag. Time & Date
No recent earthquake activity has been reported nearby.
Minimum magnitude displayed is 2.5.

Coastal Water Temperatures

Place Temperature
No Stations Reporting

Nearby Weather Stations